createdAt,value
2022-10-26T00:04:10.872Z,5.10
2022-10-26T00:09:04.399Z,5.78
2022-10-26T00:14:00.808Z,5.50
2022-10-26T00:18:57.883Z,5.45
2022-10-26T00:23:51.184Z,7.45
2022-10-26T00:28:47.100Z,7.25
2022-10-26T00:33:45.183Z,6.10
2022-10-26T00:38:47.745Z,5.45
2022-10-26T00:43:48.843Z,5.82
2022-10-26T00:48:47.048Z,5.50
2022-10-26T00:53:44.706Z,5.53
2022-10-26T00:58:41.266Z,5.82
2022-10-26T01:03:36.126Z,5.75
2022-10-26T01:08:31.210Z,5.63
2022-10-26T01:13:29.788Z,5.47
2022-10-26T01:18:31.687Z,5.32
2022-10-26T01:23:34.525Z,5.65
2022-10-26T01:28:49.664Z,8.00
2022-10-26T01:33:54.200Z,13.35
2022-10-26T01:38:57.099Z,9.35
2022-10-26T01:43:57.748Z,6.60
2022-10-26T01:48:56.860Z,5.40
2022-10-26T01:53:50.577Z,5.13
2022-10-26T01:59:27.960Z,5.72
2022-10-26T02:04:43.372Z,5.20
2022-10-26T02:09:47.279Z,5.45
2022-10-26T02:14:50.419Z,5.55
2022-10-26T02:19:49.318Z,5.90
2022-10-26T02:24:47.673Z,5.35
2022-10-26T02:29:46.131Z,5.05
2022-10-26T02:34:45.327Z,4.55
2022-10-26T02:56:45.612Z,5.38
2022-10-26T03:01:59.754Z,4.88
2022-10-26T03:06:57.240Z,5.90
2022-10-26T03:11:57.471Z,5.30
2022-10-26T03:17:04.813Z,5.28
2022-10-26T03:22:14.507Z,5.30
2022-10-26T03:27:09.343Z,5.17
2022-10-26T03:32:02.702Z,4.95
2022-10-26T03:37:22.325Z,5.20
2022-10-26T03:42:20.226Z,4.85
2022-10-26T03:47:20.195Z,4.80
2022-10-26T03:52:13.530Z,4.13
2022-10-26T03:57:07.036Z,6.78
2022-10-26T04:02:01.820Z,5.55
2022-10-26T04:06:55.236Z,6.03
2022-10-26T04:11:52.735Z,5.70
2022-10-26T04:22:28.036Z,6.03
2022-10-26T04:27:27.684Z,5.32
2022-10-26T04:32:49.953Z,5.55
2022-10-26T04:37:59.408Z,7.25
2022-10-26T04:42:53.307Z,8.07
2022-10-26T04:47:46.985Z,6.95
2022-10-26T04:52:43.085Z,7.18
2022-10-26T04:57:41.129Z,6.20
2022-10-26T05:02:35.111Z,7.65
2022-10-26T05:07:28.625Z,6.95
2022-10-26T05:12:30.450Z,7.88
2022-10-26T05:17:27.920Z,6.82
2022-10-26T05:22:21.419Z,7.50
2022-10-26T05:27:20.069Z,8.90
2022-10-26T05:32:16.096Z,12.30
2022-10-26T05:37:27.781Z,8.95
2022-10-26T05:42:25.956Z,8.18
2022-10-26T05:47:22.784Z,9.30
2022-10-26T05:52:17.275Z,6.57
2022-10-26T05:57:13.228Z,5.68
2022-10-26T06:02:15.699Z,10.32
2022-10-26T06:07:13.316Z,6.25
2022-10-26T06:12:09.475Z,6.50
2022-10-26T06:17:16.820Z,6.70
2022-10-26T06:22:25.878Z,6.88
2022-10-26T06:27:34.084Z,5.03
2022-10-26T06:32:27.436Z,5.82
2022-10-26T06:37:24.286Z,5.82
2022-10-26T06:42:18.352Z,6.55
2022-10-26T06:47:23.418Z,5.82
2022-10-26T06:52:23.515Z,5.45
2022-10-26T06:57:20.334Z,6.50
2022-10-26T07:02:15.162Z,5.70
2022-10-26T07:07:10.056Z,4.53
2022-10-26T07:12:03.364Z,5.20
2022-10-26T07:16:57.189Z,4.90
2022-10-26T07:21:51.730Z,5.25
2022-10-26T07:26:44.886Z,5.47
2022-10-26T07:31:38.022Z,4.65
2022-10-26T07:36:33.716Z,5.25
2022-10-26T07:41:28.296Z,5.57
2022-10-26T07:46:21.378Z,4.68
2022-10-26T07:51:17.322Z,5.00
2022-10-26T07:56:12.066Z,5.13
2022-10-26T08:01:11.369Z,5.60
2022-10-26T08:06:05.320Z,5.40
2022-10-26T08:10:58.605Z,4.97
2022-10-26T08:15:51.813Z,5.32
2022-10-26T08:20:47.682Z,5.03
2022-10-26T08:25:40.894Z,4.25
2022-10-26T08:35:28.466Z,7.80
2022-10-26T08:40:26.549Z,5.82
2022-10-26T08:45:31.765Z,4.35
2022-10-26T08:50:34.051Z,6.50
2022-10-26T08:55:36.336Z,4.88
2022-10-26T09:00:32.008Z,5.78
2022-10-26T09:05:36.755Z,5.55
2022-10-26T09:10:55.039Z,4.47
2022-10-26T09:16:02.846Z,4.40
2022-10-26T09:21:14.211Z,4.30
2022-10-26T09:26:16.709Z,5.00
2022-10-26T09:31:16.379Z,5.13
2022-10-26T09:41:21.819Z,3.92
2022-10-26T09:46:21.658Z,4.22
2022-10-26T09:51:17.029Z,3.92
2022-10-26T09:56:13.948Z,3.72
2022-10-26T10:01:07.177Z,4.00
2022-10-26T10:06:17.074Z,3.63
2022-10-26T10:11:12.599Z,3.90
2022-10-26T10:16:14.258Z,3.75
2022-10-26T10:21:09.019Z,3.55
2022-10-26T10:26:04.863Z,3.40
2022-10-26T10:31:00.601Z,3.90
2022-10-26T10:35:55.174Z,3.60
2022-10-26T10:40:53.615Z,4.00
2022-10-26T10:45:50.299Z,3.60
2022-10-26T10:50:58.080Z,3.35
2022-10-26T10:56:11.780Z,3.40
2022-10-26T11:01:05.784Z,3.20
2022-10-26T11:06:09.841Z,3.25
2022-10-26T11:11:09.957Z,3.90
2022-10-26T11:16:06.720Z,3.67
2022-10-26T11:21:08.223Z,3.25
2022-10-26T11:26:08.537Z,3.95
2022-10-26T11:31:08.159Z,3.47
2022-10-26T11:41:04.829Z,3.55
2022-10-26T11:46:06.719Z,3.10
2022-10-26T11:51:01.415Z,3.20
2022-10-26T11:55:56.598Z,3.20
2022-10-26T12:00:54.694Z,3.17
2022-10-26T12:05:51.094Z,2.90
2022-10-26T12:10:49.668Z,3.08
2022-10-26T12:16:04.252Z,3.30
2022-10-26T12:21:04.375Z,3.15
2022-10-26T12:26:30.634Z,3.10
2022-10-26T12:31:50.749Z,2.95
2022-10-26T12:37:12.046Z,3.60
2022-10-26T12:42:29.054Z,3.70
2022-10-26T12:47:55.676Z,3.45
2022-10-26T12:52:54.127Z,3.30
2022-10-26T12:58:01.149Z,3.60
2022-10-26T13:03:08.952Z,4.20
2022-10-26T13:08:05.881Z,3.90
2022-10-26T13:13:01.211Z,5.15
2022-10-26T13:18:01.298Z,3.58
2022-10-26T13:22:55.781Z,3.90
2022-10-26T13:28:00.797Z,3.83
2022-10-26T13:32:56.669Z,3.17
2022-10-26T13:37:54.830Z,3.55
2022-10-26T13:42:50.820Z,4.07
2022-10-26T13:47:50.989Z,4.05
2022-10-26T13:52:46.852Z,3.70
2022-10-26T13:57:44.620Z,4.82
2022-10-26T14:02:44.215Z,3.83
2022-10-26T14:12:35.546Z,4.03
2022-10-26T14:17:28.935Z,3.58
2022-10-26T14:22:24.737Z,3.53
2022-10-26T14:27:21.247Z,5.38
2022-10-26T14:32:29.497Z,4.53
2022-10-26T14:37:39.173Z,4.45
2022-10-26T14:42:35.848Z,8.27
2022-10-26T14:47:32.102Z,5.00
2022-10-26T14:52:30.325Z,3.80
2022-10-26T14:57:36.984Z,5.63
2022-10-26T15:02:30.976Z,7.55
2022-10-26T15:07:24.741Z,5.60
2022-10-26T15:12:33.912Z,5.28
2022-10-26T15:17:42.199Z,5.65
2022-10-26T15:22:35.846Z,6.63
2022-10-26T15:27:29.307Z,6.55
2022-10-26T15:32:34.470Z,6.70
2022-10-26T15:37:27.703Z,8.00
2022-10-26T15:42:21.250Z,10.27
2022-10-26T15:47:20.302Z,16.92
2022-10-26T15:52:15.252Z,17.30
2022-10-26T15:57:15.513Z,19.02
2022-10-26T16:02:15.547Z,18.42
2022-10-26T16:07:13.040Z,18.23
2022-10-26T16:12:09.746Z,18.73
2022-10-26T16:17:12.481Z,17.40
2022-10-26T16:22:08.239Z,17.13
2022-10-26T16:27:07.407Z,19.02
2022-10-26T16:32:00.762Z,16.87
2022-10-26T16:36:54.388Z,20.05
2022-10-26T16:41:50.919Z,21.40
2022-10-26T16:46:45.713Z,21.38
2022-10-26T16:51:47.647Z,18.40
2022-10-26T16:56:42.289Z,19.08
2022-10-26T17:01:36.129Z,17.67
2022-10-26T17:06:31.215Z,17.20
2022-10-26T17:11:24.478Z,16.73
2022-10-26T17:16:20.330Z,15.48
2022-10-26T17:21:14.858Z,17.63
2022-10-26T17:26:11.576Z,27.98
2022-10-26T17:31:06.838Z,26.05
2022-10-26T17:36:00.292Z,23.02
2022-10-26T17:40:53.512Z,27.10
2022-10-26T17:45:48.575Z,26.10
2022-10-26T17:50:41.797Z,22.98
2022-10-26T17:55:35.210Z,22.70
2022-10-26T18:00:28.851Z,21.00
2022-10-26T18:05:26.287Z,19.25
2022-10-26T18:10:36.977Z,18.63
2022-10-26T18:15:31.294Z,17.90
2022-10-26T18:20:26.198Z,17.05
2022-10-26T18:25:19.778Z,14.88
2022-10-26T18:30:13.831Z,13.52
2022-10-26T18:35:07.622Z,14.30
2022-10-26T18:40:02.188Z,13.02
2022-10-26T18:45:00.611Z,12.30
2022-10-26T18:49:54.163Z,10.75
2022-10-26T18:54:47.646Z,11.95
2022-10-26T18:59:42.331Z,11.50
2022-10-26T19:04:35.816Z,11.45
2022-10-26T19:09:29.227Z,11.90
2022-10-26T19:14:22.688Z,12.18
2022-10-26T19:19:21.446Z,11.30
2022-10-26T19:24:18.056Z,9.95
2022-10-26T19:29:13.962Z,9.65
2022-10-26T19:34:07.483Z,9.80
2022-10-26T19:39:02.970Z,9.05
2022-10-26T19:43:56.977Z,8.70
2022-10-26T19:48:52.493Z,9.38
2022-10-26T19:53:45.831Z,9.75
2022-10-26T19:58:41.823Z,9.45
2022-10-26T20:03:35.412Z,10.05
2022-10-26T20:08:32.098Z,10.23
2022-10-26T20:13:25.867Z,11.38
2022-10-26T20:18:23.670Z,10.55
2022-10-26T20:23:17.264Z,7.15
2022-10-26T20:28:11.516Z,7.95
2022-10-26T20:33:05.437Z,8.80
2022-10-26T20:38:04.160Z,8.05
2022-10-26T20:43:01.408Z,7.75
2022-10-26T20:48:25.627Z,7.68
2022-10-26T20:53:28.539Z,7.45
2022-10-26T20:58:29.371Z,8.45
2022-10-26T21:03:22.933Z,8.13
2022-10-26T21:08:19.416Z,8.18
2022-10-26T21:13:20.540Z,8.48
2022-10-26T21:18:24.275Z,7.95
2022-10-26T21:23:18.171Z,9.02
2022-10-26T21:28:16.139Z,9.00
2022-10-26T21:33:09.643Z,9.65
2022-10-26T21:38:08.841Z,9.32
2022-10-26T21:43:06.003Z,9.70
2022-10-26T21:48:01.010Z,9.48
2022-10-26T21:52:56.146Z,9.05
2022-10-26T21:57:49.856Z,9.02
2022-10-26T22:02:43.248Z,8.30
2022-10-26T22:07:37.919Z,9.18
2022-10-26T22:12:31.814Z,11.10
2022-10-26T22:17:25.091Z,10.35
2022-10-26T22:22:19.645Z,8.73
2022-10-26T22:27:14.253Z,8.70
2022-10-26T22:32:07.465Z,7.95
2022-10-26T22:37:00.709Z,7.28
2022-10-26T22:41:54.269Z,8.27
2022-10-26T22:46:51.996Z,7.38
2022-10-26T22:51:54.107Z,7.25
2022-10-26T22:56:47.874Z,7.03
2022-10-26T23:01:42.014Z,7.50
2022-10-26T23:06:36.986Z,6.38
2022-10-26T23:11:31.354Z,6.53
2022-10-26T23:16:24.997Z,6.07
2022-10-26T23:21:18.832Z,6.97
2022-10-26T23:26:18.080Z,7.20
2022-10-26T23:31:16.743Z,6.78
2022-10-26T23:36:10.222Z,6.97
2022-10-26T23:41:03.860Z,7.22
2022-10-26T23:46:00.169Z,6.90
2022-10-26T23:50:55.216Z,7.35
2022-10-26T23:55:49.149Z,6.97
